Time;durP1;ratioP1;P1;durP2;ratioP2;P2;SDS_P1;SDS_P2;PMS_P1;PMS_P2;Temp;Humidity;BMP_temperature;BMP_pressure;BME280_temperature;BME280_humidity;BME280_pressure;Samples;Min_cycle;Max_cycle;Signal;HPM_P1;HPM_P2
2022/03/05 00:01:04;;;;;;;17.00;8.27;;;;;;;6.01;43.65;100956.84;5033053;28;20068;-78
2022/03/05 00:03:33;;;;;;;8.27;4.80;;;;;;;6.07;42.96;100953.19;5033741;28;20049;-78
2022/03/05 00:06:01;;;;;;;14.07;6.93;;;;;;;6.16;42.81;100949.03;5033805;28;20061;-77
2022/03/05 00:08:28;;;;;;;16.70;7.85;;;;;;;6.10;42.54;100950.00;5033519;28;20503;-77
2022/03/05 00:10:56;;;;;;;14.60;7.72;;;;;;;6.06;42.62;100946.09;5034027;28;20045;-77
2022/03/05 00:13:24;;;;;;;15.90;7.90;;;;;;;6.00;42.85;100953.28;5015930;28;20415;-77
2022/03/05 00:15:52;;;;;;;14.07;7.32;;;;;;;6.00;42.43;100953.28;5032870;28;20042;-77
2022/03/05 00:18:20;;;;;;;12.80;7.07;;;;;;;6.01;42.69;100956.84;5032540;28;20404;-77
2022/03/05 00:20:48;;;;;;;12.40;7.00;;;;;;;5.97;42.13;100952.94;5036754;28;20534;-78
2022/03/05 00:23:16;;;;;;;13.70;6.55;;;;;;;5.90;42.49;100956.63;5037696;28;20391;-77
2022/03/05 00:25:46;;;;;;;12.80;7.07;;;;;;;5.82;42.93;100951.53;5037151;28;20049;-77
2022/03/05 00:28:14;;;;;;;14.30;7.38;;;;;;;5.85;42.23;100963.81;5036216;28;20048;-78
2022/03/05 00:30:42;;;;;;;14.57;7.78;;;;;;;5.87;42.63;100954.38;5035534;28;20053;-77
2022/03/05 00:33:09;;;;;;;11.50;5.75;;;;;;;5.90;42.50;100958.50;5035521;28;20061;-77
2022/03/05 00:35:37;;;;;;;15.60;7.93;;;;;;;5.88;42.61;100964.16;5036122;28;20054;-77
2022/03/05 00:38:06;;;;;;;12.52;6.65;;;;;;;5.86;41.89;100963.59;5035415;28;20046;-78
2022/03/05 00:40:34;;;;;;;15.02;6.82;;;;;;;5.84;41.70;100960.31;5036026;28;20056;-78
2022/03/05 00:43:02;;;;;;;13.88;7.72;;;;;;;5.86;42.40;100963.59;5035687;28;20415;-77
2022/03/05 00:45:30;;;;;;;14.32;7.43;;;;;;;5.85;41.98;100964.66;5036098;28;20056;-77
2022/03/05 00:47:58;;;;;;;13.73;6.32;;;;;;;5.81;42.28;100960.75;5035443;28;20053;-78
2022/03/05 00:50:25;;;;;;;10.30;6.25;;;;;;;5.73;42.46;100966.56;5035987;28;20060;-77
2022/03/05 00:52:53;;;;;;;15.63;7.50;;;;;;;5.69;43.12;100963.50;5035317;28;20499;-77
2022/03/05 00:55:21;;;;;;;10.98;7.10;;;;;;;5.70;42.49;100964.31;5035719;28;20050;-77
2022/03/05 00:57:49;;;;;;;16.67;7.22;;;;;;;5.65;42.09;100974.03;5035424;28;20049;-77
2022/03/05 01:00:17;;;;;;;15.00;7.80;;;;;;;5.63;42.49;100970.69;5035197;28;20049;-77
2022/03/05 01:02:44;;;;;;;13.57;7.13;;;;;;;5.62;43.27;100971.75;5034862;28;20514;-77
2022/03/05 01:05:13;;;;;;;12.85;7.00;;;;;;;5.58;44.15;100980.63;5035472;28;20049;-77
2022/03/05 01:07:41;;;;;;;14.25;7.28;;;;;;;5.52;45.05;100974.25;5035526;28;20060;-77
2022/03/05 01:10:09;;;;;;;15.45;7.88;;;;;;;5.52;45.24;100968.81;5035258;28;20400;-77
2022/03/05 01:12:37;;;;;;;17.20;7.90;;;;;;;5.52;45.59;100979.66;5035438;28;20041;-77
2022/03/05 01:15:07;;;;;;;15.68;8.38;;;;;;;5.54;45.82;100977.56;5034387;28;20419;-78
2022/03/05 01:17:35;;;;;;;15.98;8.10;;;;;;;5.49;46.69;100972.00;5035219;28;20042;-78
2022/03/05 01:20:04;;;;;;;17.70;8.70;;;;;;;5.47;46.18;100966.81;5035221;28;20045;-78
2022/03/05 01:22:31;;;;;;;15.45;7.90;;;;;;;5.36;47.31;100970.34;5035295;28;20045;-77
2022/03/05 01:25:01;;;;;;;20.00;9.07;;;;;;;5.35;47.37;100974.97;5035330;28;20053;-78
2022/03/05 01:27:28;;;;;;;17.45;8.57;;;;;;;5.30;47.77;100969.41;5035329;28;20400;-77
2022/03/05 01:29:56;;;;;;;15.32;8.95;;;;;;;5.32;48.34;100966.47;5034830;28;20045;-78
2022/03/05 01:32:24;;;;;;;21.85;9.82;;;;;;;5.23;49.47;100960.56;5017096;28;20045;-77
2022/03/05 01:34:52;;;;;;;18.63;9.57;;;;;;;5.19;50.15;100968.31;5035213;28;20381;-77
2022/03/05 01:37:20;;;;;;;21.55;10.32;;;;;;;5.16;50.91;100960.66;5016886;28;20064;-77
2022/03/05 01:39:47;;;;;;;22.95;10.95;;;;;;;5.18;50.51;100957.72;5035122;28;20483;-78
2022/03/05 01:42:22;;;;;;;15.55;8.65;;;;;;;5.11;51.08;100961.38;5035016;28;20065;-77
2022/03/05 01:44:50;;;;;;;21.30;9.80;;;;;;;5.11;51.43;100964.09;5035037;28;20064;-77
2022/03/05 01:47:19;;;;;;;22.67;11.52;;;;;;;5.13;51.88;100954.88;5033119;28;20045;-77
2022/03/05 01:49:46;;;;;;;24.63;10.75;;;;;;;5.04;52.13;100960.63;5031822;28;20385;-77
2022/03/05 01:52:14;;;;;;;23.95;10.68;;;;;;;4.96;51.76;100959.09;5032140;28;20060;-77
2022/03/05 01:54:42;;;;;;;23.67;10.93;;;;;;;4.90;52.11;100956.47;5012742;28;20038;-78
2022/03/05 01:57:12;;;;;;;25.33;11.02;;;;;;;4.87;52.31;100952.34;5034753;28;20048;-78
2022/03/05 01:59:39;;;;;;;27.48;11.40;;;;;;;4.82;52.65;100950.34;5034594;28;20040;-77
2022/03/05 02:02:07;;;;;;;24.42;10.57;;;;;;;4.84;52.64;100952.84;5017709;28;20056;-77
2022/03/05 02:04:35;;;;;;;27.65;12.77;;;;;;;4.84;52.55;100952.84;5034168;28;20050;-77
2022/03/05 02:07:04;;;;;;;26.15;11.25;;;;;;;4.84;51.71;100952.84;5033404;28;20124;-78
2022/03/05 02:09:32;;;;;;;24.33;10.93;;;;;;;4.78;52.52;100957.28;5033299;28;20154;-78
2022/03/05 02:12:00;;;;;;;22.88;11.52;;;;;;;4.75;52.53;100965.91;5033751;28;20049;-77
2022/03/05 02:14:29;;;;;;;25.58;10.95;;;;;;;4.77;51.48;100966.47;5033569;28;20072;-77
2022/03/05 02:16:57;;;;;;;23.77;10.43;;;;;;;4.77;52.34;100969.19;5033529;28;20052;-77
2022/03/05 02:19:25;;;;;;;26.25;11.13;;;;;;;4.69;51.35;100975.75;5034057;28;20052;-78
2022/03/05 02:21:53;;;;;;;27.40;11.57;;;;;;;4.69;50.80;100974.91;5033396;28;20057;-77
2022/03/05 02:24:33;;;;;;;25.45;11.57;;;;;;;4.64;51.08;100980.22;5033775;28;20053;-77
2022/03/05 02:27:02;;;;;;;22.35;11.50;;;;;;;4.69;50.37;100967.63;5033974;28;20046;-77
2022/03/05 02:29:31;;;;;;;25.35;11.55;;;;;;;4.62;50.46;100960.63;5033994;28;20052;-77
2022/03/05 02:31:59;;;;;;;22.58;10.60;;;;;;;4.55;50.84;100963.47;5033591;28;20538;-77
2022/03/05 02:34:28;;;;;;;25.58;12.52;;;;;;;4.51;51.84;100965.81;5033321;28;20033;-78
2022/03/05 02:36:56;;;;;;;26.05;12.02;;;;;;;4.50;50.87;100966.03;5033477;28;20415;-77
2022/03/05 02:39:24;;;;;;;21.90;10.63;;;;;;;4.49;50.86;100970.63;5033040;28;20049;-77
2022/03/05 02:41:54;;;;;;;28.70;12.68;;;;;;;4.50;50.48;100977.69;5032547;28;20061;-77
2022/03/05 02:44:23;;;;;;;29.73;14.13;;;;;;;4.43;51.09;100976.94;5033652;28;20037;-77
2022/03/05 02:46:51;;;;;;;27.92;13.23;;;;;;;4.43;51.51;100974.25;5033586;28;20041;-77
2022/03/05 02:49:19;;;;;;;26.60;12.60;;;;;;;4.41;51.78;100982.59;5033856;28;20057;-77
2022/03/05 02:51:47;;;;;;;30.80;12.52;;;;;;;4.36;51.93;100985.19;5033978;28;20045;-77
2022/03/05 02:54:15;;;;;;;27.73;14.13;;;;;;;4.43;52.63;100985.09;5033578;28;20060;-77
2022/03/05 02:56:42;;;;;;;25.63;12.32;;;;;;;4.30;52.05;100992.34;5033367;28;20045;-77
2022/03/05 02:59:10;;;;;;;28.00;12.98;;;;;;;4.31;51.66;100985.03;5032578;28;20045;-77
2022/03/05 03:01:38;;;;;;;29.00;12.23;;;;;;;4.34;51.34;100989.19;5033265;28;20066;-77
2022/03/05 03:04:06;;;;;;;24.52;12.05;;;;;;;4.36;51.40;100984.34;5032896;28;20408;-77
2022/03/05 03:06:34;;;;;;;28.63;12.57;;;;;;;4.34;51.81;100981.06;5033021;28;20053;-77
2022/03/05 03:09:03;;;;;;;29.88;12.43;;;;;;;4.34;51.22;100981.06;5033254;28;20049;-77
2022/03/05 03:11:31;;;;;;;29.30;12.18;;;;;;;4.29;51.60;100985.25;5032234;28;20056;-78
2022/03/05 03:14:01;;;;;;;23.55;11.23;;;;;;;4.22;51.69;100986.38;5033186;28;20514;-77
2022/03/05 03:16:30;;;;;;;29.90;11.88;;;;;;;4.23;51.48;100988.03;5033149;28;20060;-78
2022/03/05 03:18:58;;;;;;;25.48;11.52;;;;;;;4.21;51.51;100985.56;5031810;28;20531;-78
2022/03/05 03:21:26;;;;;;;26.23;12.65;;;;;;;4.12;51.48;100971.53;5033274;28;20050;-78
2022/03/05 03:23:54;;;;;;;24.52;12.63;;;;;;;4.14;51.88;100982.09;5032836;28;20053;-77
2022/03/05 03:26:21;;;;;;;26.50;11.68;;;;;;;4.01;51.94;100981.22;5031954;28;20049;-77
2022/03/05 03:28:49;;;;;;;24.38;11.05;;;;;;;4.05;51.80;100988.91;5032684;28;20049;-77
2022/03/05 03:31:17;;;;;;;23.30;11.38;;;;;;;3.99;51.42;100983.31;5032849;28;20554;-77
2022/03/05 03:33:45;;;;;;;27.75;11.00;;;;;;;4.00;51.37;100989.56;5032343;28;20057;-77
2022/03/05 03:36:13;;;;;;;27.73;11.63;;;;;;;3.98;51.58;100997.09;5015929;28;20053;-77
2022/03/05 03:38:40;;;;;;;26.65;11.75;;;;;;;3.99;51.34;100996.88;5032910;28;20068;-77
2022/03/05 03:41:09;;;;;;;22.95;11.88;;;;;;;3.94;51.34;100998.56;5032629;28;20045;-77
2022/03/05 03:43:36;;;;;;;23.55;11.02;;;;;;;3.93;51.39;101003.19;5032726;28;20053;-77
2022/03/05 03:46:06;;;;;;;26.33;11.65;;;;;;;3.95;51.12;100992.94;5032751;28;20050;-77
2022/03/05 03:48:33;;;;;;;23.10;10.63;;;;;;;3.89;51.40;100988.44;5031817;28;20057;-77
2022/03/05 03:51:01;;;;;;;22.77;9.73;;;;;;;3.87;51.02;100990.53;5032803;28;20056;-77
2022/03/05 03:53:29;;;;;;;30.17;11.00;;;;;;;3.85;51.40;100995.34;5031864;28;20068;-77
2022/03/05 03:55:57;;;;;;;21.70;10.18;;;;;;;3.82;51.14;101001.22;5012476;28;20050;-77
2022/03/05 03:58:25;;;;;;;20.02;9.65;;;;;;;3.84;51.29;100993.69;5013116;28;20053;-78
2022/03/05 04:00:53;;;;;;;24.88;9.77;;;;;;;3.87;50.71;100993.25;5012951;28;20065;-77
2022/03/05 04:03:21;;;;;;;24.17;11.05;;;;;;;3.91;50.74;100994.44;5013115;28;20046;-78
2022/03/05 04:05:49;;;;;;;26.08;11.63;;;;;;;3.89;50.76;100993.84;5013003;28;20061;-77
2022/03/05 04:11:04;;;;;;;23.90;10.48;;;;;;;3.82;50.49;101006.63;5012971;28;20477;-77
2022/03/05 04:13:31;;;;;;;21.65;9.95;;;;;;;3.87;50.73;100998.66;5012637;28;20046;-77
2022/03/05 04:15:59;;;;;;;22.70;10.73;;;;;;;3.90;50.51;100996.34;5012292;28;20061;-77
2022/03/05 04:18:27;;;;;;;22.27;10.82;;;;;;;3.92;50.77;101004.25;5013042;28;20046;-77
2022/03/05 04:20:55;;;;;;;22.35;10.63;;;;;;;3.89;50.42;100993.84;5013165;28;20053;-77
2022/03/05 04:23:24;;;;;;;19.90;9.80;;;;;;;3.90;49.73;101004.47;5011687;28;20050;-77
2022/03/05 04:25:51;;;;;;;22.75;11.35;;;;;;;3.93;50.07;101005.88;5013044;28;20060;-77
2022/03/05 04:28:20;;;;;;;24.30;10.15;;;;;;;3.92;49.76;101000.69;5012772;28;20060;-78
2022/03/05 04:30:48;;;;;;;27.38;11.13;;;;;;;3.95;50.04;101003.78;5012692;28;20046;-77
2022/03/05 04:33:21;;;;;;;19.63;9.48;;;;;;;3.92;49.76;101004.25;5012699;28;20080;-77
2022/03/05 04:35:48;;;;;;;25.30;11.13;;;;;;;3.95;49.51;100998.34;5012537;28;20049;-77
2022/03/05 04:38:16;;;;;;;24.73;11.15;;;;;;;3.94;49.25;100996.72;5012879;28;20050;-77
2022/03/05 04:40:44;;;;;;;23.70;11.18;;;;;;;3.93;50.21;101002.34;5012083;28;20046;-78
2022/03/05 04:43:12;;;;;;;26.30;11.13;;;;;;;3.91;49.82;101002.56;5012947;28;20137;-77
2022/03/05 04:45:40;;;;;;;19.60;9.57;;;;;;;3.85;49.70;101001.59;5013034;28;20046;-78
2022/03/05 04:48:08;;;;;;;23.30;10.82;;;;;;;3.83;50.23;100994.75;5012617;28;20389;-77
2022/03/05 04:50:36;;;;;;;19.73;9.65;;;;;;;3.88;49.28;101003.03;5012648;28;20049;-77
2022/03/05 04:53:04;;;;;;;25.48;10.43;;;;;;;3.84;49.64;101009.94;5012502;28;20489;-77
2022/03/05 04:55:32;;;;;;;21.27;10.10;;;;;;;3.87;49.93;100998.66;5010344;28;20053;-77
2022/03/05 04:58:00;;;;;;;22.70;11.57;;;;;;;3.92;49.72;101001.53;5012566;28;20046;-77
2022/03/05 05:00:28;;;;;;;22.52;11.35;;;;;;;3.98;50.24;101006.06;5000643;28;20051;-77
2022/03/05 05:02:56;;;;;;;30.00;11.23;;;;;;;3.93;50.07;101014.00;5009528;28;20038;-77
2022/03/05 05:05:24;;;;;;;25.90;10.65;;;;;;;3.99;48.91;101007.69;5013023;28;20049;-78
2022/03/05 05:07:52;;;;;;;22.85;11.32;;;;;;;4.00;48.72;101006.63;5016151;28;20038;-78
2022/03/05 05:10:19;;;;;;;23.23;10.40;;;;;;;3.97;49.04;101003.56;5016618;28;20053;-77
2022/03/05 05:12:47;;;;;;;25.70;10.65;;;;;;;4.00;49.25;101005.81;5015818;28;20042;-77
2022/03/05 05:15:15;;;;;;;22.65;10.90;;;;;;;4.00;49.04;101005.81;5015866;28;20052;-77
2022/03/05 05:17:43;;;;;;;27.60;11.27;;;;;;;4.07;49.00;101000.31;5015126;28;20127;-78
2022/03/05 05:20:11;;;;;;;21.88;9.70;;;;;;;4.07;48.99;100994.91;5016049;28;20121;-77
2022/03/05 05:22:39;;;;;;;22.90;9.82;;;;;;;4.00;48.70;101003.94;5015674;28;20046;-77
2022/03/05 05:25:07;;;;;;;27.35;10.85;;;;;;;3.96;48.37;100991.88;5015163;28;20050;-77
2022/03/05 05:27:36;;;;;;;19.40;9.43;;;;;;;4.02;48.31;100990.97;5015613;28;20049;-77
2022/03/05 05:30:06;;;;;;;20.98;9.57;;;;;;;4.02;48.80;101004.53;5015441;28;20057;-77
2022/03/05 05:32:34;;;;;;;24.33;10.70;;;;;;;3.95;48.95;101006.47;5007081;28;20077;-77
2022/03/05 05:35:03;;;;;;;20.75;11.10;;;;;;;3.93;49.00;101003.19;5015298;28;20077;-77
2022/03/05 05:37:31;;;;;;;21.33;9.65;;;;;;;3.93;48.83;100997.78;5014134;28;20042;-77
2022/03/05 05:40:01;;;;;;;20.17;10.57;;;;;;;4.01;49.18;101007.47;5015395;28;20046;-77
2022/03/05 05:42:29;;;;;;;22.15;10.23;;;;;;;3.95;48.74;101001.06;5005426;28;20042;-78
2022/03/05 05:44:56;;;;;;;22.52;10.68;;;;;;;3.95;49.18;100994.84;4996298;28;20409;-78
2022/03/05 05:47:24;;;;;;;23.10;10.98;;;;;;;3.89;49.02;100999.25;5010304;28;20054;-78
2022/03/05 05:49:52;;;;;;;23.60;10.82;;;;;;;3.89;48.88;101002.81;5014784;28;20042;-77
2022/03/05 05:52:20;;;;;;;23.75;10.93;;;;;;;3.89;49.14;101002.81;5013719;28;20050;-77
2022/03/05 05:54:48;;;;;;;21.88;11.15;;;;;;;3.88;48.77;100994.91;5024771;28;20049;-77
2022/03/05 05:57:16;;;;;;;24.05;10.73;;;;;;;3.89;49.42;101005.50;5034589;28;20391;-77
2022/03/05 05:59:44;;;;;;;25.00;10.60;;;;;;;3.98;48.22;100995.22;5034670;28;20048;-78
2022/03/05 06:02:12;;;;;;;21.88;9.85;;;;;;;4.10;48.38;100999.88;5000525;28;20063;-78
2022/03/05 06:04:41;;;;;;;26.17;11.20;;;;;;;4.01;48.14;101000.16;5016390;28;20058;-78
2022/03/05 06:07:09;;;;;;;22.60;10.63;;;;;;;4.00;47.90;101003.94;5025646;28;20042;-77
2022/03/05 06:09:37;;;;;;;26.02;10.57;;;;;;;4.04;48.18;101007.00;5034273;28;20391;-78
2022/03/05 06:12:06;;;;;;;23.77;10.55;;;;;;;4.07;48.10;100997.63;5033641;28;20402;-77
2022/03/05 06:14:34;;;;;;;21.00;10.30;;;;;;;4.08;47.48;101005.53;5034045;28;20598;-77
2022/03/05 06:17:02;;;;;;;20.92;10.13;;;;;;;4.16;47.46;101001.69;5032700;28;20041;-78
2022/03/05 06:19:31;;;;;;;21.45;9.80;;;;;;;4.19;47.57;101014.75;5033904;28;20053;-79
2022/03/05 06:21:59;;;;;;;17.75;7.97;;;;;;;4.13;47.43;101007.53;5034614;28;20337;-78
2022/03/05 06:24:27;;;;;;;22.98;10.27;;;;;;;4.17;46.80;101009.56;5033134;28;20061;-79
2022/03/05 06:26:55;;;;;;;21.40;9.68;;;;;;;4.18;47.14;101013.13;5015197;28;20066;-79
2022/03/05 06:29:22;;;;;;;17.67;8.65;;;;;;;4.20;47.85;101011.00;5034493;28;20472;-78
2022/03/05 06:31:52;;;;;;;23.48;9.23;;;;;;;4.23;46.42;101012.44;5032894;28;20050;-78
2022/03/05 06:34:20;;;;;;;20.73;8.52;;;;;;;4.34;45.96;101014.38;5034748;28;20050;-78
2022/03/05 06:36:50;;;;;;;22.08;10.30;;;;;;;4.35;46.98;101015.22;5034899;28;20396;-78
2022/03/05 06:39:17;;;;;;;19.77;9.00;;;;;;;4.37;46.66;101013.09;5034527;28;20041;-77
2022/03/05 06:41:45;;;;;;;22.75;9.60;;;;;;;4.42;46.75;101022.22;5034270;28;20625;-77
2022/03/05 06:44:13;;;;;;;19.35;10.15;;;;;;;4.48;46.83;101025.03;5034738;28;20053;-78
2022/03/05 06:46:41;;;;;;;18.58;8.98;;;;;;;4.41;46.40;101025.97;5017244;28;20042;-78
2022/03/05 06:49:09;;;;;;;20.15;9.18;;;;;;;4.43;46.11;101028.44;5015638;28;20060;-78
2022/03/05 06:51:37;;;;;;;19.17;9.27;;;;;;;4.42;45.92;101026.78;5034127;28;20065;-77
2022/03/05 06:54:05;;;;;;;17.33;8.32;;;;;;;4.47;45.54;101035.06;5032285;28;20045;-78
2022/03/05 06:56:33;;;;;;;18.38;8.00;;;;;;;4.44;46.25;101035.50;5033286;28;20041;-78
2022/03/05 06:59:01;;;;;;;22.30;9.02;;;;;;;4.55;46.35;101037.47;5033702;28;20063;-78
2022/03/05 07:01:34;;;;;;;16.50;8.15;;;;;;;4.63;45.01;101039.03;5032762;28;20377;-79
2022/03/05 07:04:02;;;;;;;18.35;8.43;;;;;;;4.69;46.45;101037.28;5034572;28;20048;-78
2022/03/05 07:06:30;;;;;;;18.38;8.35;;;;;;;4.74;45.48;101045.56;5033773;28;20041;-78
2022/03/05 07:08:58;;;;;;;20.58;7.93;;;;;;;4.72;45.24;101039.53;5033749;28;20058;-74
2022/03/05 07:11:26;;;;;;;14.55;7.85;;;;;;;4.76;45.09;101045.34;5033043;28;20049;-75
2022/03/05 07:13:54;;;;;;;20.65;8.45;;;;;;;4.85;45.19;101046.69;5033355;28;20529;-74
2022/03/05 07:16:22;;;;;;;19.13;7.85;;;;;;;4.77;45.64;101039.69;5032792;28;20525;-75
2022/03/05 07:18:50;;;;;;;12.82;6.85;;;;;;;4.93;44.53;101050.94;5033363;28;20518;-74
2022/03/05 07:21:18;;;;;;;16.00;7.30;;;;;;;4.95;44.96;101040.69;5032053;28;20056;-75
2022/03/05 07:23:46;;;;;;;19.88;7.28;;;;;;;4.82;45.15;101047.97;5032788;28;20476;-76
2022/03/05 07:26:15;;;;;;;10.93;6.40;;;;;;;4.93;44.74;101043.63;5031373;28;20045;-75
2022/03/05 07:28:45;;;;;;;15.52;7.40;;;;;;;5.25;44.82;101056.13;5032422;28;20060;-77
2022/03/05 07:31:13;;;;;;;13.00;6.75;;;;;;;5.49;44.85;101051.53;5030503;28;20404;-75
2022/03/05 07:33:42;;;;;;;12.60;5.97;;;;;;;5.68;44.85;101045.19;5031028;28;20048;-76
2022/03/05 07:36:10;;;;;;;12.63;6.55;;;;;;;5.79;43.34;101056.06;5031281;28;20062;-74
2022/03/05 07:38:41;;;;;;;14.07;6.13;;;;;;;5.75;43.38;101057.59;5032078;28;20403;-75
2022/03/05 07:41:08;;;;;;;12.85;6.25;;;;;;;5.65;42.98;101058.19;5017581;28;20519;-75
2022/03/05 07:43:37;;;;;;;9.82;5.70;;;;;;;5.75;43.13;101059.47;5014549;28;20053;-75
2022/03/05 07:46:05;;;;;;;12.13;6.20;;;;;;;5.85;42.90;101053.47;5031586;28;20061;-75
2022/03/05 07:48:33;;;;;;;13.80;5.88;;;;;;;5.85;42.01;101059.72;5031441;28;20045;-75
2022/03/05 07:51:02;;;;;;;12.90;6.07;;;;;;;5.89;42.52;101049.22;5031085;28;20049;-75
2022/03/05 07:53:33;;;;;;;14.00;6.45;;;;;;;5.97;43.46;101062.44;5021578;28;20045;-75
2022/03/05 07:56:01;;;;;;;11.45;5.88;;;;;;;5.99;42.16;101060.31;5031186;28;20057;-76
2022/03/05 07:58:29;;;;;;;12.98;6.40;;;;;;;6.03;41.56;101056.06;5031834;28;20053;-75
2022/03/05 08:00:58;;;;;;;13.43;6.15;;;;;;;6.17;42.14;101055.84;5029549;28;20045;-75
2022/03/05 08:03:26;;;;;;;17.38;6.95;;;;;;;5.94;42.04;101067.50;5032457;28;20056;-74
2022/03/05 08:05:54;;;;;;;10.98;6.15;;;;;;;5.89;41.35;101068.22;5033226;28;20500;-75
2022/03/05 08:08:22;;;;;;;8.98;4.88;;;;;;;5.75;40.67;101070.34;5032954;28;20060;-76
2022/03/05 08:10:50;;;;;;;11.38;6.40;;;;;;;5.71;41.77;101069.19;5032606;28;20049;-78
2022/03/05 08:13:18;;;;;;;11.60;5.28;;;;;;;5.39;40.83;101083.88;5032060;28;20060;-75
2022/03/05 08:15:49;;;;;;;9.55;5.90;;;;;;;5.40;42.05;101079.28;5031969;28;20061;-76
2022/03/05 08:18:17;;;;;;;11.88;6.45;;;;;;;5.67;41.06;101073.44;5032294;28;20504;-74
2022/03/05 08:20:45;;;;;;;11.60;5.65;;;;;;;5.79;40.28;101079.69;5036792;28;20045;-74
2022/03/05 08:23:13;;;;;;;13.82;5.97;;;;;;;5.81;40.05;101080.28;5039212;28;20061;-76
2022/03/05 08:25:41;;;;;;;9.63;5.68;;;;;;;6.07;39.28;101080.91;5033069;28;20425;-76
2022/03/05 08:28:09;;;;;;;10.98;5.57;;;;;;;5.99;39.11;101082.06;5031775;28;20049;-75
2022/03/05 08:30:37;;;;;;;17.05;6.45;;;;;;;6.27;40.25;101074.25;5032675;28;20053;-76
2022/03/05 08:33:04;;;;;;;16.95;5.90;;;;;;;6.46;38.92;101074.94;5030325;28;20049;-75
2022/03/05 08:35:32;;;;;;;17.95;5.97;;;;;;;6.54;38.06;101074.56;5031164;28;20392;-80
2022/03/05 08:38:01;;;;;;;15.55;5.78;;;;;;;6.50;38.01;101086.16;4997444;28;20045;-80
2022/03/05 08:40:29;;;;;;;8.95;5.50;;;;;;;6.07;37.06;101089.06;4998322;28;20048;-75
2022/03/05 08:42:57;;;;;;;12.45;6.43;;;;;;;6.13;37.21;101077.25;5035469;28;20049;-75
2022/03/05 08:45:29;;;;;;;10.55;5.13;;;;;;;5.98;37.22;101080.41;5009643;28;20060;-77
2022/03/05 08:47:57;;;;;;;10.38;4.63;;;;;;;5.79;38.00;101074.25;5035784;28;20428;-75
2022/03/05 08:50:25;;;;;;;12.10;5.78;;;;;;;5.88;37.49;101080.97;5032132;28;20082;-75
2022/03/05 08:52:53;;;;;;;9.25;5.60;;;;;;;5.94;36.85;101078.38;5034929;28;20054;-75
2022/03/05 08:55:21;;;;;;;12.57;5.78;;;;;;;5.98;37.63;101079.56;5035115;28;20045;-75
2022/03/05 08:57:49;;;;;;;10.85;5.95;;;;;;;5.86;37.85;101066.81;5017550;28;20052;-75
2022/03/05 09:00:18;;;;;;;9.85;5.32;;;;;;;5.78;37.26;101076.13;5022530;28;20037;-76
2022/03/05 09:02:46;;;;;;;8.20;4.85;;;;;;;5.88;37.17;101075.53;5036374;28;20050;-74
2022/03/05 09:05:14;;;;;;;11.27;6.22;;;;;;;6.03;37.58;101077.00;5035744;28;20056;-75
2022/03/05 09:07:43;;;;;;;9.65;5.57;;;;;;;5.94;37.38;101067.50;5034857;28;20801;-75
2022/03/05 09:10:11;;;;;;;11.35;6.07;;;;;;;6.12;37.01;101058.44;5034593;28;20117;-76
2022/03/05 09:12:40;;;;;;;16.23;6.03;;;;;;;6.42;37.30;101062.88;5017326;28;20041;-75
2022/03/05 09:15:10;;;;;;;11.90;5.72;;;;;;;6.59;36.35;101073.81;5036180;28;20053;-77
2022/03/05 09:17:38;;;;;;;11.23;5.93;;;;;;;6.44;36.32;101061.59;5035013;28;20068;-75
2022/03/05 09:20:06;;;;;;;12.25;6.10;;;;;;;6.10;36.32;101061.41;5033224;28;20075;-75
2022/03/05 09:22:34;;;;;;;12.10;6.75;;;;;;;6.41;36.92;101056.63;5034276;28;20041;-75
2022/03/05 09:25:03;;;;;;;11.70;6.13;;;;;;;6.89;36.26;101059.19;5034010;28;20052;-76
2022/03/05 09:27:31;;;;;;;11.80;6.75;;;;;;;7.07;35.67;101054.59;5034499;28;20041;-75
2022/03/05 09:29:59;;;;;;;13.73;6.22;;;;;;;7.47;35.59;101048.22;5034343;28;20492;-75
2022/03/05 09:32:28;;;;;;;11.68;6.65;;;;;;;7.27;36.16;101056.84;5032518;28;20044;-74
2022/03/05 09:34:59;;;;;;;11.73;6.47;;;;;;;7.26;34.76;101056.06;5034309;28;20045;-77
2022/03/05 09:37:28;;;;;;;15.13;7.65;;;;;;;7.46;35.31;101051.19;5033223;28;20042;-77
2022/03/05 09:39:57;;;;;;;15.20;6.55;;;;;;;7.48;34.81;101054.50;5023233;28;20042;-76
2022/03/05 09:42:25;;;;;;;13.27;7.10;;;;;;;7.33;34.68;101053.16;5035255;28;20500;-76
2022/03/05 09:44:56;;;;;;;14.82;7.45;;;;;;;7.68;34.49;101047.72;5029240;28;20547;-76
2022/03/05 09:47:26;;;;;;;14.35;8.05;;;;;;;7.80;34.42;101043.84;5034070;28;20057;-76
2022/03/05 09:49:54;;;;;;;13.88;7.20;;;;;;;8.22;34.51;101055.31;5033563;28;20048;-75
2022/03/05 09:52:22;;;;;;;14.38;6.85;;;;;;;7.73;35.11;101047.78;5031924;28;20047;-77
2022/03/05 09:54:50;;;;;;;16.48;8.13;;;;;;;7.63;34.64;101037.56;5032121;28;20050;-74
2022/03/05 09:57:17;;;;;;;14.25;7.55;;;;;;;7.86;34.91;101043.91;5032703;28;20045;-75
2022/03/05 09:59:45;;;;;;;15.88;8.15;;;;;;;7.59;34.56;101030.97;5031608;28;20427;-74
2022/03/05 10:02:14;;;;;;;14.35;7.43;;;;;;;7.48;34.20;101035.44;5031621;28;20068;-74
2022/03/05 10:04:42;;;;;;;16.65;7.55;;;;;;;7.40;35.44;101039.38;5033183;28;20054;-76
2022/03/05 10:07:16;;;;;;;15.70;8.88;;;;;;;7.38;35.07;101031.47;5028898;28;20061;-76
2022/03/05 10:09:47;;;;;;;14.67;8.40;;;;;;;7.90;34.43;101036.88;5031842;28;20049;-75
2022/03/05 10:12:32;;;;;;;14.60;8.23;;;;;;;7.59;34.48;101048.13;5029898;28;20064;-75
2022/03/05 10:15:10;;;;;;;17.15;8.50;;;;;;;7.66;34.97;101037.91;5031461;28;20602;-76
2022/03/05 10:17:58;;;;;;;15.90;8.05;;;;;;;7.47;34.81;101036.47;5029846;28;20041;-76
2022/03/05 10:20:30;;;;;;;17.10;10.13;;;;;;;7.56;34.93;101024.09;5013888;28;20037;-76
2022/03/05 10:23:00;;;;;;;17.42;8.90;;;;;;;7.62;35.11;101023.13;5031124;28;20050;-76
2022/03/05 10:25:29;;;;;;;16.50;8.45;;;;;;;7.81;35.09;101028.28;5031093;28;20412;-76
2022/03/05 10:28:02;;;;;;;18.13;7.95;;;;;;;7.90;35.56;101028.69;5031540;28;20037;-76
2022/03/05 10:30:32;;;;;;;15.00;8.15;;;;;;;7.68;34.75;101024.03;5028880;28;20041;-77
2022/03/05 10:33:01;;;;;;;17.50;8.73;;;;;;;7.95;35.63;101023.31;5031415;28;20053;-76
2022/03/05 10:35:29;;;;;;;17.52;8.98;;;;;;;8.36;34.61;101017.56;5030565;28;20045;-76
2022/03/05 10:37:57;;;;;;;19.45;9.82;;;;;;;8.70;34.55;101030.28;5045459;28;20056;-75
2022/03/05 10:40:33;;;;;;;22.13;10.70;;;;;;;9.37;34.33;101019.13;5031437;28;20052;-75
2022/03/05 10:43:05;;;;;;;18.17;8.82;;;;;;;9.68;33.23;101020.19;5030737;28;20586;-76
2022/03/05 10:46:08;;;;;;;20.63;9.50;;;;;;;9.66;32.82;101011.44;5031141;28;20046;-75
2022/03/05 10:48:40;;;;;;;17.48;7.88;;;;;;;9.36;32.82;101012.03;4978287;28;20054;-74
2022/03/05 10:51:13;;;;;;;15.80;9.30;;;;;;;8.93;33.11;101012.75;5020343;28;20049;-75
2022/03/05 10:53:48;;;;;;;21.65;10.30;;;;;;;7.81;34.58;101017.38;5030354;28;20049;-74
2022/03/05 10:56:23;;;;;;;21.27;8.95;;;;;;;8.07;34.84;101015.84;5031331;28;20064;-75
2022/03/05 10:59:07;;;;;;;18.67;9.88;;;;;;;7.99;34.19;101018.19;5031936;28;20053;-76
2022/03/05 11:01:41;;;;;;;15.57;8.18;;;;;;;8.14;35.30;101015.66;5029655;28;20042;-75
2022/03/05 11:04:11;;;;;;;18.35;9.43;;;;;;;8.29;34.68;101011.47;5030178;28;20052;-75
2022/03/05 11:06:41;;;;;;;20.95;9.93;;;;;;;8.90;33.54;101015.19;5030143;28;20056;-75
2022/03/05 11:09:12;;;;;;;17.80;9.38;;;;;;;9.17;33.58;101006.97;5030871;28;20052;-76
2022/03/05 11:11:42;;;;;;;18.10;9.55;;;;;;;9.08;33.78;101017.53;5030263;28;20053;-77
2022/03/05 11:14:15;;;;;;;21.80;10.57;;;;;;;9.53;35.33;101000.94;5030236;28;20046;-77
2022/03/05 11:16:44;;;;;;;17.38;9.77;;;;;;;9.89;32.27;100998.47;5029406;28;20499;-76
2022/03/05 11:19:14;;;;;;;22.80;9.82;;;;;;;9.89;32.76;101000.38;5028475;28;20056;-75
2022/03/05 11:21:42;;;;;;;20.25;10.07;;;;;;;10.16;33.60;101008.44;5030126;28;20041;-79
2022/03/05 11:24:15;;;;;;;17.98;9.90;;;;;;;9.97;31.79;101004.50;5026388;28;20053;-75
2022/03/05 11:26:48;;;;;;;22.73;10.27;;;;;;;10.49;32.42;100994.63;5028001;28;20061;-73
2022/03/05 11:29:29;;;;;;;18.30;10.32;;;;;;;10.60;31.24;100985.34;5030010;28;20038;-77
2022/03/05 11:32:12;;;;;;;18.75;9.43;;;;;;;10.73;31.13;100992.25;5028359;28;20496;-75